KANB

Anniston Regional Airport

Anniston, Alabama, USA
KANB 210520Z 2106/2206 VRB03KT P6SM SCT045 FM210800 23004KT P6SM BKN045 FM211400 25008KT P6SM VCTS BKN035CB FM211800 25010KT P6SM VCTS BKN040CB FM220100 29005KT P6SM SCT050
Issued Valid From Valid To
Jul-21 @ 05:20 UTC
(5 hours ago)
Jul-21 @ 06:00 UTC
(4 hours ago)
Jul-22 @ 06:00 UTC
(in 20 hours)
Expired Click to View Jul-21 @ 06:00 to Jul-21 @ 08:00
KANB 210520Z 2106/2206 VRB03KT P6SM SCT045
Wind Visibility Clouds
Variable at 3 knots Greater than 6 miles
  • Scattered at 4,500' AGL
From Jul-21 @ 08:00 to Jul-21 @ 14:00
FM210800 23004KT P6SM BKN045
Wind Visibility Clouds
230° at 4 knots Greater than 6 miles
  • Broken at 4,500' AGL
From Jul-21 @ 14:00 to Jul-21 @ 18:00
FM211400 25008KT P6SM VCTS BKN035CB
Wind Visibility Clouds Conditions
250° at 8 knots Greater than 6 miles
  • Broken at 3,500' AGL
  • Area Thunderstorm
From Jul-21 @ 18:00 to Jul-22 @ 01:00
FM211800 25010KT P6SM VCTS BKN040CB
Wind Visibility Clouds Conditions
250° at 10 knots Greater than 6 miles
  • Broken at 4,000' AGL
  • Area Thunderstorm
From Jul-22 @ 01:00 to Jul-22 @ 06:00
FM220100 29005KT P6SM SCT050
Wind Visibility Clouds
290° at 5 knots Greater than 6 miles
  • Scattered at 5,000' AGL
KANB 210520Z 2106/2206 VRB03KT P6SM SCT045 FM210800 23004KT P6SM BKN045 FM211400 25008KT P6SM VCTS BKN035CB FM211800 25010KT P6SM VCTS BKN040CB FM220100 29005KT P6SM SCT050
Issued Jul-21 @ 05:20 UTC
(5 hours ago)
Valid From Jul-21 @ 06:00 UTC
(4 hours ago)
Valid To Jul-22 @ 06:00 UTC
(in 20 hours)
Jul-21 @ 06:00 - Jul-21 @ 08:00
Wind Visibility
Variable at 3 knots Greater than 6 miles
Clouds
  • Scattered at 4,500' AGL
From Jul-21 @ 08:00 - Jul-21 @ 14:00
Wind Visibility
230° at 4 knots Greater than 6 miles
Clouds
  • Broken at 4,500' AGL
From Jul-21 @ 14:00 - Jul-21 @ 18:00
Wind Visibility
250° at 8 knots Greater than 6 miles
Clouds
  • Broken at 3,500' AGL
Conditions
  • Area Thunderstorm
From Jul-21 @ 18:00 - Jul-22 @ 01:00
Wind Visibility
250° at 10 knots Greater than 6 miles
Clouds
  • Broken at 4,000' AGL
Conditions
  • Area Thunderstorm
From Jul-22 @ 01:00 - Jul-22 @ 06:00
Wind Visibility
290° at 5 knots Greater than 6 miles
Clouds
  • Scattered at 5,000' AGL